sensor_id;sensor_type;location;lat;lon;timestamp;P1;durP1;ratioP1;P2;durP2;ratioP2
9140;SDS011;46330;50.822;7.126;2024-01-30T00:00:24;12.05;;;8.23;;
9140;SDS011;46330;50.822;7.126;2024-01-30T00:02:52;15.57;;;8.52;;
9140;SDS011;46330;50.822;7.126;2024-01-30T00:05:22;15.05;;;8.63;;
9140;SDS011;46330;50.822;7.126;2024-01-30T00:07:50;19.27;;;8.80;;
9140;SDS011;46330;50.822;7.126;2024-01-30T00:10:17;15.85;;;8.40;;
9140;SDS011;46330;50.822;7.126;2024-01-30T00:12:46;15.45;;;9.00;;
9140;SDS011;46330;50.822;7.126;2024-01-30T00:15:14;14.88;;;8.57;;
9140;SDS011;46330;50.822;7.126;2024-01-30T00:17:42;14.55;;;8.65;;
9140;SDS011;46330;50.822;7.126;2024-01-30T00:20:10;18.88;;;9.23;;
9140;SDS011;46330;50.822;7.126;2024-01-30T00:22:40;15.57;;;7.85;;
9140;SDS011;46330;50.822;7.126;2024-01-30T00:25:08;13.70;;;7.90;;
9140;SDS011;46330;50.822;7.126;2024-01-30T00:27:36;16.05;;;8.57;;
9140;SDS011;46330;50.822;7.126;2024-01-30T00:30:04;14.15;;;8.30;;
9140;SDS011;46330;50.822;7.126;2024-01-30T00:32:33;14.73;;;8.57;;
9140;SDS011;46330;50.822;7.126;2024-01-30T00:35:01;12.98;;;8.23;;
9140;SDS011;46330;50.822;7.126;2024-01-30T00:37:29;17.55;;;8.90;;
9140;SDS011;46330;50.822;7.126;2024-01-30T00:39:59;14.38;;;7.88;;
9140;SDS011;46330;50.822;7.126;2024-01-30T00:42:27;17.80;;;8.52;;
9140;SDS011;46330;50.822;7.126;2024-01-30T00:44:55;12.80;;;7.68;;
9140;SDS011;46330;50.822;7.126;2024-01-30T00:47:23;13.07;;;8.02;;
9140;SDS011;46330;50.822;7.126;2024-01-30T00:49:51;14.35;;;8.45;;
9140;SDS011;46330;50.822;7.126;2024-01-30T00:52:19;14.25;;;7.80;;
9140;SDS011;46330;50.822;7.126;2024-01-30T00:54:47;19.48;;;8.13;;
9140;SDS011;46330;50.822;7.126;2024-01-30T00:57:16;12.18;;;7.63;;
9140;SDS011;46330;50.822;7.126;2024-01-30T00:59:44;16.35;;;8.20;;
9140;SDS011;46330;50.822;7.126;2024-01-30T01:02:12;14.80;;;7.80;;
9140;SDS011;46330;50.822;7.126;2024-01-30T01:04:41;12.82;;;7.45;;
9140;SDS011;46330;50.822;7.126;2024-01-30T01:07:09;17.48;;;8.27;;
9140;SDS011;46330;50.822;7.126;2024-01-30T01:09:38;13.63;;;7.68;;
9140;SDS011;46330;50.822;7.126;2024-01-30T01:12:06;15.40;;;8.18;;
9140;SDS011;46330;50.822;7.126;2024-01-30T01:14:35;14.02;;;7.72;;
9140;SDS011;46330;50.822;7.126;2024-01-30T01:17:03;12.93;;;7.68;;
9140;SDS011;46330;50.822;7.126;2024-01-30T01:19:31;15.27;;;7.97;;
9140;SDS011;46330;50.822;7.126;2024-01-30T01:21:59;13.85;;;8.13;;
9140;SDS011;46330;50.822;7.126;2024-01-30T01:24:27;13.13;;;7.63;;
9140;SDS011;46330;50.822;7.126;2024-01-30T01:26:55;13.50;;;8.13;;
9140;SDS011;46330;50.822;7.126;2024-01-30T01:29:23;11.38;;;7.38;;
9140;SDS011;46330;50.822;7.126;2024-01-30T01:31:56;15.73;;;8.07;;
9140;SDS011;46330;50.822;7.126;2024-01-30T01:34:24;12.65;;;7.20;;
9140;SDS011;46330;50.822;7.126;2024-01-30T01:36:56;12.93;;;7.68;;
9140;SDS011;46330;50.822;7.126;2024-01-30T01:39:24;13.85;;;7.72;;
9140;SDS011;46330;50.822;7.126;2024-01-30T01:41:52;13.45;;;7.75;;
9140;SDS011;46330;50.822;7.126;2024-01-30T01:44:19;14.07;;;7.97;;
9140;SDS011;46330;50.822;7.126;2024-01-30T01:46:47;13.20;;;7.55;;
9140;SDS011;46330;50.822;7.126;2024-01-30T01:49:17;12.57;;;8.05;;
9140;SDS011;46330;50.822;7.126;2024-01-30T01:51:45;13.30;;;6.85;;
9140;SDS011;46330;50.822;7.126;2024-01-30T01:54:15;14.07;;;7.47;;
9140;SDS011;46330;50.822;7.126;2024-01-30T01:56:44;11.02;;;6.80;;
9140;SDS011;46330;50.822;7.126;2024-01-30T01:59:12;13.02;;;7.63;;
9140;SDS011;46330;50.822;7.126;2024-01-30T02:01:40;12.63;;;7.75;;
9140;SDS011;46330;50.822;7.126;2024-01-30T02:04:09;14.82;;;8.07;;
9140;SDS011;46330;50.822;7.126;2024-01-30T02:06:39;15.70;;;7.43;;
9140;SDS011;46330;50.822;7.126;2024-01-30T02:09:07;15.57;;;8.05;;
9140;SDS011;46330;50.822;7.126;2024-01-30T02:11:35;15.77;;;7.72;;
9140;SDS011;46330;50.822;7.126;2024-01-30T02:14:04;18.05;;;7.65;;
9140;SDS011;46330;50.822;7.126;2024-01-30T02:16:32;15.07;;;7.70;;
9140;SDS011;46330;50.822;7.126;2024-01-30T02:19:00;12.75;;;7.80;;
9140;SDS011;46330;50.822;7.126;2024-01-30T02:21:29;16.52;;;8.18;;
9140;SDS011;46330;50.822;7.126;2024-01-30T02:23:57;14.20;;;7.47;;
9140;SDS011;46330;50.822;7.126;2024-01-30T02:26:27;14.75;;;7.78;;
9140;SDS011;46330;50.822;7.126;2024-01-30T02:28:55;14.10;;;7.53;;
9140;SDS011;46330;50.822;7.126;2024-01-30T02:31:24;15.00;;;7.57;;
9140;SDS011;46330;50.822;7.126;2024-01-30T02:33:52;15.93;;;7.72;;
9140;SDS011;46330;50.822;7.126;2024-01-30T02:36:20;11.55;;;6.88;;
9140;SDS011;46330;50.822;7.126;2024-01-30T02:38:50;11.95;;;6.50;;
9140;SDS011;46330;50.822;7.126;2024-01-30T02:41:18;13.68;;;7.28;;
9140;SDS011;46330;50.822;7.126;2024-01-30T02:43:46;12.55;;;7.07;;
9140;SDS011;46330;50.822;7.126;2024-01-30T02:46:14;15.02;;;7.35;;
9140;SDS011;46330;50.822;7.126;2024-01-30T02:48:42;11.82;;;6.85;;
9140;SDS011;46330;50.822;7.126;2024-01-30T02:51:10;13.45;;;7.10;;
9140;SDS011;46330;50.822;7.126;2024-01-30T02:53:38;11.90;;;7.07;;
9140;SDS011;46330;50.822;7.126;2024-01-30T02:56:07;12.07;;;7.45;;
9140;SDS011;46330;50.822;7.126;2024-01-30T02:58:36;13.15;;;7.07;;
9140;SDS011;46330;50.822;7.126;2024-01-30T03:01:04;12.52;;;6.85;;
9140;SDS011;46330;50.822;7.126;2024-01-30T03:03:32;11.82;;;6.72;;
9140;SDS011;46330;50.822;7.126;2024-01-30T03:06:02;16.20;;;7.80;;
9140;SDS011;46330;50.822;7.126;2024-01-30T03:08:30;11.07;;;6.63;;
9140;SDS011;46330;50.822;7.126;2024-01-30T03:10:58;12.43;;;6.88;;
9140;SDS011;46330;50.822;7.126;2024-01-30T03:13:27;14.13;;;7.53;;
9140;SDS011;46330;50.822;7.126;2024-01-30T03:15:55;12.40;;;7.05;;
9140;SDS011;46330;50.822;7.126;2024-01-30T03:18:23;14.20;;;7.05;;
9140;SDS011;46330;50.822;7.126;2024-01-30T03:20:51;13.98;;;7.28;;
9140;SDS011;46330;50.822;7.126;2024-01-30T03:23:19;13.27;;;6.85;;
9140;SDS011;46330;50.822;7.126;2024-01-30T03:25:47;12.98;;;6.63;;
9140;SDS011;46330;50.822;7.126;2024-01-30T03:28:15;12.60;;;7.10;;
9140;SDS011;46330;50.822;7.126;2024-01-30T03:30:44;10.57;;;6.80;;
9140;SDS011;46330;50.822;7.126;2024-01-30T03:33:12;12.68;;;7.13;;
9140;SDS011;46330;50.822;7.126;2024-01-30T03:35:40;13.50;;;7.30;;
9140;SDS011;46330;50.822;7.126;2024-01-30T03:38:09;13.05;;;7.07;;
9140;SDS011;46330;50.822;7.126;2024-01-30T03:40:37;12.30;;;7.25;;
9140;SDS011;46330;50.822;7.126;2024-01-30T03:43:05;12.10;;;7.13;;
9140;SDS011;46330;50.822;7.126;2024-01-30T03:45:33;14.77;;;6.88;;
9140;SDS011;46330;50.822;7.126;2024-01-30T03:48:02;11.55;;;6.68;;
9140;SDS011;46330;50.822;7.126;2024-01-30T03:50:30;11.68;;;6.70;;
9140;SDS011;46330;50.822;7.126;2024-01-30T03:52:58;11.10;;;7.30;;
9140;SDS011;46330;50.822;7.126;2024-01-30T03:55:26;11.75;;;7.18;;
9140;SDS011;46330;50.822;7.126;2024-01-30T03:57:54;13.10;;;7.45;;
9140;SDS011;46330;50.822;7.126;2024-01-30T04:00:22;13.52;;;7.15;;
9140;SDS011;46330;50.822;7.126;2024-01-30T04:02:50;15.00;;;7.72;;
9140;SDS011;46330;50.822;7.126;2024-01-30T04:05:19;11.88;;;7.18;;
9140;SDS011;46330;50.822;7.126;2024-01-30T04:07:47;13.27;;;7.47;;
9140;SDS011;46330;50.822;7.126;2024-01-30T04:10:15;12.65;;;6.53;;
9140;SDS011;46330;50.822;7.126;2024-01-30T04:12:43;35.03;;;14.18;;
9140;SDS011;46330;50.822;7.126;2024-01-30T04:15:11;20.70;;;10.73;;
9140;SDS011;46330;50.822;7.126;2024-01-30T04:17:40;14.20;;;7.55;;
9140;SDS011;46330;50.822;7.126;2024-01-30T04:20:09;13.57;;;8.07;;
9140;SDS011;46330;50.822;7.126;2024-01-30T04:22:43;20.08;;;11.02;;
9140;SDS011;46330;50.822;7.126;2024-01-30T04:25:11;12.27;;;8.10;;
9140;SDS011;46330;50.822;7.126;2024-01-30T04:27:39;16.85;;;10.18;;
9140;SDS011;46330;50.822;7.126;2024-01-30T04:30:07;19.45;;;11.85;;
9140;SDS011;46330;50.822;7.126;2024-01-30T04:32:36;15.48;;;8.27;;
9140;SDS011;46330;50.822;7.126;2024-01-30T04:35:04;15.75;;;7.07;;
9140;SDS011;46330;50.822;7.126;2024-01-30T04:37:36;13.27;;;7.00;;
9140;SDS011;46330;50.822;7.126;2024-01-30T04:40:07;13.75;;;7.80;;
9140;SDS011;46330;50.822;7.126;2024-01-30T04:42:36;11.90;;;6.45;;
9140;SDS011;46330;50.822;7.126;2024-01-30T04:45:05;12.93;;;7.00;;
9140;SDS011;46330;50.822;7.126;2024-01-30T04:47:33;11.18;;;7.60;;
9140;SDS011;46330;50.822;7.126;2024-01-30T04:50:06;9.85;;;6.85;;
9140;SDS011;46330;50.822;7.126;2024-01-30T04:52:35;13.20;;;7.53;;
9140;SDS011;46330;50.822;7.126;2024-01-30T04:55:03;13.68;;;7.05;;
9140;SDS011;46330;50.822;7.126;2024-01-30T04:57:33;13.70;;;7.85;;
9140;SDS011;46330;50.822;7.126;2024-01-30T05:00:01;12.80;;;7.60;;
9140;SDS011;46330;50.822;7.126;2024-01-30T05:02:29;14.75;;;7.90;;
9140;SDS011;46330;50.822;7.126;2024-01-30T05:04:57;15.73;;;7.57;;
9140;SDS011;46330;50.822;7.126;2024-01-30T05:07:25;15.23;;;7.78;;
9140;SDS011;46330;50.822;7.126;2024-01-30T05:09:53;11.93;;;6.97;;
9140;SDS011;46330;50.822;7.126;2024-01-30T05:12:24;15.02;;;7.47;;
9140;SDS011;46330;50.822;7.126;2024-01-30T05:14:53;13.80;;;7.50;;
9140;SDS011;46330;50.822;7.126;2024-01-30T05:17:21;13.55;;;7.90;;
9140;SDS011;46330;50.822;7.126;2024-01-30T05:19:49;12.93;;;7.72;;
9140;SDS011;46330;50.822;7.126;2024-01-30T05:22:17;14.18;;;7.65;;
9140;SDS011;46330;50.822;7.126;2024-01-30T05:24:45;10.43;;;6.80;;
9140;SDS011;46330;50.822;7.126;2024-01-30T05:27:13;14.43;;;7.43;;
9140;SDS011;46330;50.822;7.126;2024-01-30T05:29:41;12.50;;;7.70;;
9140;SDS011;46330;50.822;7.126;2024-01-30T05:32:11;12.07;;;7.05;;
9140;SDS011;46330;50.822;7.126;2024-01-30T05:34:38;13.18;;;7.57;;
9140;SDS011;46330;50.822;7.126;2024-01-30T05:37:06;13.73;;;7.53;;
9140;SDS011;46330;50.822;7.126;2024-01-30T05:39:35;14.07;;;7.68;;
9140;SDS011;46330;50.822;7.126;2024-01-30T05:42:03;13.57;;;7.70;;
9140;SDS011;46330;50.822;7.126;2024-01-30T05:44:31;11.68;;;7.40;;
9140;SDS011;46330;50.822;7.126;2024-01-30T05:46:59;13.65;;;7.57;;
9140;SDS011;46330;50.822;7.126;2024-01-30T05:49:29;12.52;;;7.32;;
9140;SDS011;46330;50.822;7.126;2024-01-30T05:51:56;9.25;;;6.03;;
9140;SDS011;46330;50.822;7.126;2024-01-30T05:54:25;13.98;;;7.28;;
9140;SDS011;46330;50.822;7.126;2024-01-30T05:56:53;15.02;;;8.05;;
9140;SDS011;46330;50.822;7.126;2024-01-30T05:59:21;16.48;;;8.68;;
9140;SDS011;46330;50.822;7.126;2024-01-30T06:01:49;13.43;;;8.13;;
9140;SDS011;46330;50.822;7.126;2024-01-30T06:04:17;15.02;;;8.00;;
9140;SDS011;46330;50.822;7.126;2024-01-30T06:06:46;15.57;;;7.55;;
9140;SDS011;46330;50.822;7.126;2024-01-30T06:09:14;14.57;;;9.25;;
9140;SDS011;46330;50.822;7.126;2024-01-30T06:11:42;15.55;;;8.75;;
9140;SDS011;46330;50.822;7.126;2024-01-30T06:14:11;12.45;;;8.15;;
9140;SDS011;46330;50.822;7.126;2024-01-30T06:16:39;14.70;;;8.02;;
9140;SDS011;46330;50.822;7.126;2024-01-30T06:19:07;13.52;;;7.45;;
9140;SDS011;46330;50.822;7.126;2024-01-30T06:21:35;14.95;;;7.35;;
9140;SDS011;46330;50.822;7.126;2024-01-30T06:24:06;12.63;;;7.95;;
9140;SDS011;46330;50.822;7.126;2024-01-30T06:26:34;23.10;;;8.50;;
9140;SDS011;46330;50.822;7.126;2024-01-30T06:29:02;19.05;;;8.63;;
9140;SDS011;46330;50.822;7.126;2024-01-30T06:31:30;12.15;;;7.55;;
9140;SDS011;46330;50.822;7.126;2024-01-30T06:33:58;13.80;;;7.63;;
9140;SDS011;46330;50.822;7.126;2024-01-30T06:36:26;14.48;;;7.90;;
9140;SDS011;46330;50.822;7.126;2024-01-30T06:38:54;12.95;;;7.90;;
9140;SDS011;46330;50.822;7.126;2024-01-30T06:41:23;16.35;;;7.60;;
9140;SDS011;46330;50.822;7.126;2024-01-30T06:43:51;14.05;;;6.68;;
9140;SDS011;46330;50.822;7.126;2024-01-30T06:46:19;15.57;;;8.10;;
9140;SDS011;46330;50.822;7.126;2024-01-30T06:48:47;13.57;;;7.82;;
9140;SDS011;46330;50.822;7.126;2024-01-30T06:51:15;14.00;;;8.65;;
9140;SDS011;46330;50.822;7.126;2024-01-30T06:53:43;14.55;;;7.30;;
9140;SDS011;46330;50.822;7.126;2024-01-30T06:56:12;17.55;;;8.23;;
9140;SDS011;46330;50.822;7.126;2024-01-30T06:58:41;13.77;;;7.78;;
9140;SDS011;46330;50.822;7.126;2024-01-30T07:01:09;14.35;;;7.65;;
9140;SDS011;46330;50.822;7.126;2024-01-30T07:03:38;15.52;;;8.13;;
9140;SDS011;46330;50.822;7.126;2024-01-30T07:06:06;15.98;;;7.40;;
9140;SDS011;46330;50.822;7.126;2024-01-30T07:08:34;11.57;;;7.55;;
9140;SDS011;46330;50.822;7.126;2024-01-30T07:11:02;12.68;;;7.28;;
9140;SDS011;46330;50.822;7.126;2024-01-30T07:13:30;12.65;;;7.03;;
9140;SDS011;46330;50.822;7.126;2024-01-30T07:16:00;15.98;;;8.38;;
9140;SDS011;46330;50.822;7.126;2024-01-30T07:18:28;14.13;;;7.95;;
9140;SDS011;46330;50.822;7.126;2024-01-30T07:20:56;12.60;;;7.65;;
9140;SDS011;46330;50.822;7.126;2024-01-30T07:23:23;12.55;;;7.32;;
9140;SDS011;46330;50.822;7.126;2024-01-30T07:25:51;13.25;;;7.90;;
9140;SDS011;46330;50.822;7.126;2024-01-30T07:28:19;14.18;;;7.68;;
9140;SDS011;46330;50.822;7.126;2024-01-30T07:30:47;15.38;;;8.13;;
9140;SDS011;46330;50.822;7.126;2024-01-30T07:33:17;13.55;;;7.53;;
9140;SDS011;46330;50.822;7.126;2024-01-30T07:35:45;16.83;;;8.18;;
9140;SDS011;46330;50.822;7.126;2024-01-30T07:38:13;13.77;;;8.13;;
9140;SDS011;46330;50.822;7.126;2024-01-30T07:40:41;13.32;;;7.75;;
9140;SDS011;46330;50.822;7.126;2024-01-30T07:43:09;13.20;;;7.13;;
9140;SDS011;46330;50.822;7.126;2024-01-30T07:45:37;16.75;;;8.98;;
9140;SDS011;46330;50.822;7.126;2024-01-30T07:48:05;17.40;;;8.95;;
9140;SDS011;46330;50.822;7.126;2024-01-30T07:50:35;17.85;;;8.85;;
9140;SDS011;46330;50.822;7.126;2024-01-30T07:53:03;18.40;;;9.57;;
9140;SDS011;46330;50.822;7.126;2024-01-30T07:55:31;15.70;;;8.40;;
9140;SDS011;46330;50.822;7.126;2024-01-30T08:01:41;16.30;;;8.52;;
9140;SDS011;46330;50.822;7.126;2024-01-30T08:04:09;15.70;;;8.50;;
9140;SDS011;46330;50.822;7.126;2024-01-30T08:06:39;13.88;;;7.20;;
9140;SDS011;46330;50.822;7.126;2024-01-30T08:09:09;12.93;;;7.32;;
9140;SDS011;46330;50.822;7.126;2024-01-30T08:11:37;16.08;;;7.97;;
9140;SDS011;46330;50.822;7.126;2024-01-30T08:14:05;15.45;;;8.73;;
9140;SDS011;46330;50.822;7.126;2024-01-30T08:16:33;14.13;;;6.93;;
9140;SDS011;46330;50.822;7.126;2024-01-30T08:19:02;14.13;;;7.60;;
9140;SDS011;46330;50.822;7.126;2024-01-30T08:21:30;14.00;;;6.95;;
9140;SDS011;46330;50.822;7.126;2024-01-30T08:24:07;14.13;;;7.30;;
9140;SDS011;46330;50.822;7.126;2024-01-30T08:26:35;16.13;;;8.25;;
9140;SDS011;46330;50.822;7.126;2024-01-30T08:29:03;14.70;;;8.35;;
9140;SDS011;46330;50.822;7.126;2024-01-30T08:31:31;14.95;;;7.55;;
9140;SDS011;46330;50.822;7.126;2024-01-30T08:33:59;15.88;;;8.32;;
9140;SDS011;46330;50.822;7.126;2024-01-30T08:36:28;13.73;;;7.60;;
9140;SDS011;46330;50.822;7.126;2024-01-30T08:38:55;15.82;;;8.02;;
9140;SDS011;46330;50.822;7.126;2024-01-30T08:41:30;14.68;;;7.80;;
9140;SDS011;46330;50.822;7.126;2024-01-30T08:43:58;12.70;;;6.72;;
9140;SDS011;46330;50.822;7.126;2024-01-30T08:46:26;16.20;;;8.13;;
9140;SDS011;46330;50.822;7.126;2024-01-30T08:48:55;9.80;;;5.93;;
9140;SDS011;46330;50.822;7.126;2024-01-30T08:51:23;18.15;;;8.75;;
9140;SDS011;46330;50.822;7.126;2024-01-30T08:53:51;19.65;;;8.48;;
9140;SDS011;46330;50.822;7.126;2024-01-30T08:56:20;17.45;;;8.02;;
9140;SDS011;46330;50.822;7.126;2024-01-30T08:58:49;18.80;;;9.32;;
9140;SDS011;46330;50.822;7.126;2024-01-30T09:01:17;13.30;;;7.13;;
9140;SDS011;46330;50.822;7.126;2024-01-30T09:03:45;15.73;;;8.00;;
9140;SDS011;46330;50.822;7.126;2024-01-30T09:06:13;14.77;;;7.60;;
9140;SDS011;46330;50.822;7.126;2024-01-30T09:08:41;15.43;;;7.80;;
9140;SDS011;46330;50.822;7.126;2024-01-30T09:11:09;12.57;;;7.13;;
9140;SDS011;46330;50.822;7.126;2024-01-30T09:13:38;14.20;;;6.78;;
9140;SDS011;46330;50.822;7.126;2024-01-30T09:16:07;14.35;;;6.20;;
9140;SDS011;46330;50.822;7.126;2024-01-30T09:18:35;12.77;;;7.00;;
9140;SDS011;46330;50.822;7.126;2024-01-30T09:21:03;13.20;;;7.30;;
9140;SDS011;46330;50.822;7.126;2024-01-30T09:23:32;15.02;;;7.22;;
9140;SDS011;46330;50.822;7.126;2024-01-30T09:26:00;11.60;;;7.30;;
9140;SDS011;46330;50.822;7.126;2024-01-30T09:28:28;10.88;;;6.75;;
9140;SDS011;46330;50.822;7.126;2024-01-30T09:30:56;12.75;;;7.47;;
9140;SDS011;46330;50.822;7.126;2024-01-30T09:33:25;14.30;;;7.43;;
9140;SDS011;46330;50.822;7.126;2024-01-30T09:35:53;13.00;;;7.57;;
9140;SDS011;46330;50.822;7.126;2024-01-30T09:38:21;13.18;;;7.15;;
9140;SDS011;46330;50.822;7.126;2024-01-30T09:40:50;11.90;;;7.60;;
9140;SDS011;46330;50.822;7.126;2024-01-30T09:43:22;11.93;;;6.88;;
9140;SDS011;46330;50.822;7.126;2024-01-30T09:45:53;12.05;;;6.68;;
9140;SDS011;46330;50.822;7.126;2024-01-30T09:48:21;10.00;;;6.53;;
9140;SDS011;46330;50.822;7.126;2024-01-30T09:50:51;11.18;;;6.60;;
9140;SDS011;46330;50.822;7.126;2024-01-30T09:53:20;12.70;;;6.50;;
9140;SDS011;46330;50.822;7.126;2024-01-30T09:55:50;15.48;;;6.57;;
9140;SDS011;46330;50.822;7.126;2024-01-30T09:58:18;13.80;;;7.07;;
9140;SDS011;46330;50.822;7.126;2024-01-30T10:00:46;10.77;;;6.40;;
9140;SDS011;46330;50.822;7.126;2024-01-30T10:03:14;9.52;;;5.95;;
9140;SDS011;46330;50.822;7.126;2024-01-30T10:05:42;13.90;;;6.45;;
9140;SDS011;46330;50.822;7.126;2024-01-30T10:10:47;9.70;;;6.30;;
9140;SDS011;46330;50.822;7.126;2024-01-30T10:13:15;13.73;;;6.95;;
9140;SDS011;46330;50.822;7.126;2024-01-30T10:15:43;11.40;;;6.57;;
9140;SDS011;46330;50.822;7.126;2024-01-30T10:18:11;12.48;;;6.15;;
9140;SDS011;46330;50.822;7.126;2024-01-30T10:20:39;11.27;;;6.72;;
9140;SDS011;46330;50.822;7.126;2024-01-30T10:23:07;11.02;;;6.45;;
9140;SDS011;46330;50.822;7.126;2024-01-30T10:25:37;8.75;;;6.30;;
9140;SDS011;46330;50.822;7.126;2024-01-30T10:28:05;11.45;;;6.65;;
9140;SDS011;46330;50.822;7.126;2024-01-30T10:30:33;15.68;;;7.18;;
9140;SDS011;46330;50.822;7.126;2024-01-30T10:33:01;10.65;;;6.78;;
9140;SDS011;46330;50.822;7.126;2024-01-30T10:35:30;13.48;;;6.93;;
9140;SDS011;46330;50.822;7.126;2024-01-30T10:38:01;14.00;;;6.88;;
9140;SDS011;46330;50.822;7.126;2024-01-30T10:40:29;8.90;;;5.90;;
9140;SDS011;46330;50.822;7.126;2024-01-30T10:43:00;14.20;;;7.28;;
9140;SDS011;46330;50.822;7.126;2024-01-30T10:48:02;13.80;;;7.00;;
9140;SDS011;46330;50.822;7.126;2024-01-30T10:50:36;12.07;;;6.75;;
9140;SDS011;46330;50.822;7.126;2024-01-30T10:53:16;12.68;;;6.90;;
9140;SDS011;46330;50.822;7.126;2024-01-30T10:55:45;13.32;;;7.15;;
9140;SDS011;46330;50.822;7.126;2024-01-30T10:58:16;13.55;;;7.07;;
9140;SDS011;46330;50.822;7.126;2024-01-30T11:00:44;16.30;;;7.22;;
9140;SDS011;46330;50.822;7.126;2024-01-30T11:03:13;12.20;;;7.22;;
9140;SDS011;46330;50.822;7.126;2024-01-30T11:05:41;12.57;;;6.43;;
9140;SDS011;46330;50.822;7.126;2024-01-30T11:08:12;10.15;;;6.07;;
9140;SDS011;46330;50.822;7.126;2024-01-30T11:10:44;11.60;;;6.90;;
9140;SDS011;46330;50.822;7.126;2024-01-30T11:13:13;10.75;;;6.60;;
9140;SDS011;46330;50.822;7.126;2024-01-30T11:15:43;13.35;;;6.75;;
9140;SDS011;46330;50.822;7.126;2024-01-30T11:18:11;12.23;;;6.55;;
9140;SDS011;46330;50.822;7.126;2024-01-30T11:20:39;12.77;;;6.82;;
9140;SDS011;46330;50.822;7.126;2024-01-30T11:23:14;9.80;;;6.32;;
9140;SDS011;46330;50.822;7.126;2024-01-30T11:25:43;14.60;;;6.50;;
9140;SDS011;46330;50.822;7.126;2024-01-30T11:28:14;11.93;;;6.68;;
9140;SDS011;46330;50.822;7.126;2024-01-30T11:30:44;9.90;;;6.28;;
9140;SDS011;46330;50.822;7.126;2024-01-30T11:33:14;10.05;;;6.32;;
9140;SDS011;46330;50.822;7.126;2024-01-30T11:35:43;12.77;;;6.10;;
9140;SDS011;46330;50.822;7.126;2024-01-30T11:38:13;12.90;;;6.47;;
9140;SDS011;46330;50.822;7.126;2024-01-30T11:40:42;10.35;;;5.65;;
9140;SDS011;46330;50.822;7.126;2024-01-30T11:43:11;10.40;;;5.07;;
9140;SDS011;46330;50.822;7.126;2024-01-30T11:45:39;9.30;;;4.82;;
9140;SDS011;46330;50.822;7.126;2024-01-30T11:48:08;9.98;;;5.28;;
9140;SDS011;46330;50.822;7.126;2024-01-30T11:50:40;10.43;;;5.47;;
9140;SDS011;46330;50.822;7.126;2024-01-30T11:53:08;10.27;;;5.60;;
9140;SDS011;46330;50.822;7.126;2024-01-30T11:55:37;10.60;;;4.95;;
9140;SDS011;46330;50.822;7.126;2024-01-30T11:58:05;9.05;;;5.05;;
9140;SDS011;46330;50.822;7.126;2024-01-30T12:00:33;8.68;;;5.03;;
9140;SDS011;46330;50.822;7.126;2024-01-30T12:03:02;13.02;;;5.75;;
9140;SDS011;46330;50.822;7.126;2024-01-30T12:05:34;11.05;;;5.22;;
9140;SDS011;46330;50.822;7.126;2024-01-30T12:08:03;8.25;;;5.00;;
9140;SDS011;46330;50.822;7.126;2024-01-30T12:10:32;10.65;;;5.15;;
9140;SDS011;46330;50.822;7.126;2024-01-30T12:13:00;10.05;;;5.55;;
9140;SDS011;46330;50.822;7.126;2024-01-30T12:15:29;10.43;;;5.30;;
9140;SDS011;46330;50.822;7.126;2024-01-30T12:18:04;15.88;;;5.65;;
9140;SDS011;46330;50.822;7.126;2024-01-30T12:20:35;10.38;;;5.38;;
9140;SDS011;46330;50.822;7.126;2024-01-30T12:23:03;11.07;;;5.88;;
9140;SDS011;46330;50.822;7.126;2024-01-30T12:25:32;11.23;;;5.63;;
9140;SDS011;46330;50.822;7.126;2024-01-30T12:28:00;12.50;;;6.32;;
9140;SDS011;46330;50.822;7.126;2024-01-30T12:30:29;9.73;;;5.03;;
9140;SDS011;46330;50.822;7.126;2024-01-30T12:32:57;7.50;;;4.85;;
9140;SDS011;46330;50.822;7.126;2024-01-30T12:35:25;9.50;;;4.90;;
9140;SDS011;46330;50.822;7.126;2024-01-30T12:37:59;8.48;;;4.78;;
9140;SDS011;46330;50.822;7.126;2024-01-30T12:40:28;10.82;;;5.53;;
9140;SDS011;46330;50.822;7.126;2024-01-30T12:42:56;11.40;;;5.38;;
9140;SDS011;46330;50.822;7.126;2024-01-30T12:45:24;8.55;;;5.00;;
9140;SDS011;46330;50.822;7.126;2024-01-30T12:47:52;9.05;;;4.85;;
9140;SDS011;46330;50.822;7.126;2024-01-30T12:50:21;11.38;;;5.32;;
9140;SDS011;46330;50.822;7.126;2024-01-30T12:52:49;8.93;;;5.10;;
9140;SDS011;46330;50.822;7.126;2024-01-30T12:55:19;8.63;;;4.90;;
9140;SDS011;46330;50.822;7.126;2024-01-30T12:57:47;8.20;;;5.00;;
9140;SDS011;46330;50.822;7.126;2024-01-30T13:00:15;9.85;;;5.30;;
9140;SDS011;46330;50.822;7.126;2024-01-30T13:02:44;10.05;;;4.93;;
9140;SDS011;46330;50.822;7.126;2024-01-30T13:05:12;15.50;;;5.65;;
9140;SDS011;46330;50.822;7.126;2024-01-30T13:07:40;9.15;;;5.15;;
9140;SDS011;46330;50.822;7.126;2024-01-30T13:10:08;11.23;;;5.38;;
9140;SDS011;46330;50.822;7.126;2024-01-30T13:12:38;11.82;;;4.90;;
9140;SDS011;46330;50.822;7.126;2024-01-30T13:15:06;10.90;;;5.57;;
9140;SDS011;46330;50.822;7.126;2024-01-30T13:17:35;10.43;;;5.30;;
9140;SDS011;46330;50.822;7.126;2024-01-30T13:20:03;10.55;;;5.80;;
9140;SDS011;46330;50.822;7.126;2024-01-30T13:22:37;11.10;;;5.63;;
9140;SDS011;46330;50.822;7.126;2024-01-30T13:25:06;8.80;;;5.55;;
9140;SDS011;46330;50.822;7.126;2024-01-30T13:27:35;9.43;;;5.55;;
9140;SDS011;46330;50.822;7.126;2024-01-30T13:30:06;14.80;;;5.93;;
9140;SDS011;46330;50.822;7.126;2024-01-30T13:32:36;13.52;;;5.85;;
9140;SDS011;46330;50.822;7.126;2024-01-30T13:35:04;11.82;;;5.60;;
9140;SDS011;46330;50.822;7.126;2024-01-30T13:37:33;11.98;;;6.25;;
9140;SDS011;46330;50.822;7.126;2024-01-30T13:40:01;12.25;;;5.75;;
9140;SDS011;46330;50.822;7.126;2024-01-30T13:42:37;9.43;;;5.50;;
9140;SDS011;46330;50.822;7.126;2024-01-30T13:45:06;8.52;;;5.30;;
9140;SDS011;46330;50.822;7.126;2024-01-30T13:47:36;12.35;;;6.15;;
9140;SDS011;46330;50.822;7.126;2024-01-30T13:50:05;9.88;;;5.85;;
9140;SDS011;46330;50.822;7.126;2024-01-30T13:52:34;9.63;;;5.72;;
9140;SDS011;46330;50.822;7.126;2024-01-30T13:55:10;10.48;;;5.47;;
9140;SDS011;46330;50.822;7.126;2024-01-30T13:57:39;12.90;;;5.97;;
9140;SDS011;46330;50.822;7.126;2024-01-30T14:00:09;10.85;;;6.00;;
9140;SDS011;46330;50.822;7.126;2024-01-30T14:02:38;9.35;;;5.38;;
9140;SDS011;46330;50.822;7.126;2024-01-30T14:05:06;9.15;;;5.25;;
9140;SDS011;46330;50.822;7.126;2024-01-30T14:07:35;12.52;;;5.80;;
9140;SDS011;46330;50.822;7.126;2024-01-30T14:10:06;11.18;;;6.10;;
9140;SDS011;46330;50.822;7.126;2024-01-30T14:12:38;9.20;;;5.70;;
9140;SDS011;46330;50.822;7.126;2024-01-30T14:15:07;9.38;;;5.38;;
9140;SDS011;46330;50.822;7.126;2024-01-30T14:17:53;11.43;;;5.80;;
9140;SDS011;46330;50.822;7.126;2024-01-30T14:20:21;10.98;;;5.68;;
9140;SDS011;46330;50.822;7.126;2024-01-30T14:22:49;14.52;;;6.20;;
9140;SDS011;46330;50.822;7.126;2024-01-30T14:25:18;10.13;;;5.57;;
9140;SDS011;46330;50.822;7.126;2024-01-30T14:27:46;10.48;;;6.05;;
9140;SDS011;46330;50.822;7.126;2024-01-30T14:30:15;10.25;;;5.85;;
9140;SDS011;46330;50.822;7.126;2024-01-30T14:32:44;11.98;;;6.38;;
9140;SDS011;46330;50.822;7.126;2024-01-30T14:35:13;10.75;;;5.60;;
9140;SDS011;46330;50.822;7.126;2024-01-30T14:37:41;9.82;;;5.88;;
9140;SDS011;46330;50.822;7.126;2024-01-30T14:40:09;10.38;;;6.43;;
9140;SDS011;46330;50.822;7.126;2024-01-30T14:42:38;10.23;;;6.78;;
9140;SDS011;46330;50.822;7.126;2024-01-30T14:45:06;11.98;;;5.80;;
9140;SDS011;46330;50.822;7.126;2024-01-30T14:47:35;11.07;;;6.22;;
9140;SDS011;46330;50.822;7.126;2024-01-30T14:50:05;12.48;;;6.25;;
9140;SDS011;46330;50.822;7.126;2024-01-30T14:52:35;11.40;;;6.50;;
9140;SDS011;46330;50.822;7.126;2024-01-30T14:55:04;12.85;;;6.15;;
9140;SDS011;46330;50.822;7.126;2024-01-30T14:57:32;10.07;;;6.68;;
9140;SDS011;46330;50.822;7.126;2024-01-30T15:00:01;10.15;;;5.60;;
9140;SDS011;46330;50.822;7.126;2024-01-30T15:02:30;9.43;;;6.13;;
9140;SDS011;46330;50.822;7.126;2024-01-30T15:05:00;11.80;;;6.57;;